Time;durP1;ratioP1;P1;durP2;ratioP2;P2;SDS_P1;SDS_P2;PMS_P1;PMS_P2;Temp;Humidity;BMP_temperature;BMP_pressure;BME280_temperature;BME280_humidity;BME280_pressure;Samples;Min_cycle;Max_cycle;Signal;HPM_P1;HPM_P2
2024/04/09 00:01:08;;;;;;;4.53;3.03;;;17.00;99.90;;;;;;5468733;26;19998;-36
2024/04/09 00:03:37;;;;;;;4.75;2.88;;;17.10;99.90;;;;;;5468830;26;20359;-36
2024/04/09 00:06:14;;;;;;;8.77;4.30;;;17.10;99.90;;;;;;5456074;26;20014;-38
2024/04/09 00:08:40;;;;;;;6.50;3.83;;;17.10;99.90;;;;;;5472667;26;19998;-36
2024/04/09 00:11:06;;;;;;;5.95;3.85;;;17.10;99.90;;;;;;5471076;26;20009;-37
2024/04/09 00:13:32;;;;;;;10.82;5.20;;;17.10;99.90;;;;;;5460989;26;20006;-38
2024/04/09 00:15:58;;;;;;;10.75;5.65;;;17.10;99.90;;;;;;5466712;26;20009;-38
2024/04/09 00:18:34;;;;;;;7.78;4.88;;;16.90;99.90;;;;;;5472160;26;20045;-33
2024/04/09 00:21:02;;;;;;;6.82;4.55;;;16.80;99.90;;;;;;5471510;26;20059;-40
2024/04/09 00:23:28;;;;;;;5.22;3.88;;;16.70;99.90;;;;;;5470310;26;20575;-38
2024/04/09 00:25:54;;;;;;;6.40;3.78;;;16.70;99.90;;;;;;5469267;26;20002;-38
2024/04/09 00:28:20;;;;;;;6.75;4.32;;;16.70;99.90;;;;;;5476453;26;20048;-36
2024/04/09 00:30:46;;;;;;;4.93;3.90;;;16.70;99.90;;;;;;5473768;26;20002;-35
2024/04/09 00:33:14;;;;;;;7.65;3.55;;;16.70;99.90;;;;;;5453170;26;20355;-37
2024/04/09 00:35:40;;;;;;;6.18;3.47;;;16.80;99.90;;;;;;5469027;26;20002;-37
2024/04/09 00:38:06;;;;;;;4.45;3.20;;;16.80;99.90;;;;;;5471166;26;20006;-38
2024/04/09 00:40:32;;;;;;;4.22;2.85;;;16.90;99.90;;;;;;5468841;26;20509;-38
2024/04/09 00:43:02;;;;;;;4.88;3.53;;;16.90;99.90;;;;;;5471602;26;20558;-43
2024/04/09 00:45:29;;;;;;;3.70;2.97;;;16.90;99.90;;;;;;5454603;26;20387;-36
2024/04/09 00:47:56;;;;;;;4.32;3.13;;;16.90;99.90;;;;;;5473572;26;20074;-37
2024/04/09 00:50:24;;;;;;;4.43;3.10;;;16.90;99.90;;;;;;5469663;26;20002;-37
2024/04/09 00:52:51;;;;;;;3.58;3.25;;;17.00;99.90;;;;;;5474900;26;20012;-38
2024/04/09 00:55:22;;;;;;;4.38;3.53;;;17.00;99.90;;;;;;5471379;26;19999;-37
2024/04/09 00:57:48;;;;;;;4.53;3.55;;;17.00;99.90;;;;;;5472145;26;19998;-38
2024/04/09 01:00:16;;;;;;;7.72;4.45;;;17.00;99.90;;;;;;5474873;26;20004;-37
2024/04/09 01:02:48;;;;;;;6.60;4.70;;;17.00;99.90;;;;;;5470387;26;20018;-34
2024/04/09 01:05:14;;;;;;;5.57;4.05;;;16.90;99.90;;;;;;5472974;26;20066;-39
2024/04/09 01:07:40;;;;;;;6.57;3.97;;;16.90;99.90;;;;;;5466609;26;20452;-35
2024/04/09 01:10:06;;;;;;;6.20;4.20;;;16.80;99.90;;;;;;5475418;26;19998;-35
2024/04/09 01:12:31;;;;;;;5.30;3.63;;;16.80;99.90;;;;;;5471691;26;20617;-37
2024/04/09 01:14:57;;;;;;;5.45;3.45;;;16.70;99.90;;;;;;5472537;26;19998;-37
2024/04/09 01:17:24;;;;;;;5.15;3.63;;;16.70;99.90;;;;;;5468665;26;20006;-37
2024/04/09 01:19:51;;;;;;;4.20;3.10;;;16.70;99.90;;;;;;5462842;26;19999;-37
2024/04/09 01:22:17;;;;;;;6.70;3.05;;;16.60;99.90;;;;;;5470128;26;20038;-38
2024/04/09 01:24:42;;;;;;;2.22;2.03;;;16.60;99.90;;;;;;5469113;26;20965;-36
2024/04/09 01:27:14;;;;;;;2.85;2.13;;;16.60;99.90;;;;;;5486614;26;20423;-34
2024/04/09 01:29:41;;;;;;;2.30;2.10;;;16.50;99.90;;;;;;5470270;26;20457;-34
2024/04/09 01:32:06;;;;;;;2.42;2.05;;;16.60;99.90;;;;;;5472797;26;20540;-36
2024/04/09 01:34:35;;;;;;;2.63;2.08;;;16.60;99.90;;;;;;5465998;26;19998;-37
2024/04/09 01:37:01;;;;;;;2.55;1.85;;;16.50;99.90;;;;;;5469204;26;20481;-37
2024/04/09 01:39:27;;;;;;;3.72;2.10;;;16.50;99.90;;;;;;5475697;26;20469;-38
2024/04/09 01:41:53;;;;;;;2.88;2.60;;;16.50;99.90;;;;;;5476481;26;19995;-38
2024/04/09 01:44:19;;;;;;;2.85;2.20;;;16.60;99.90;;;;;;5471798;26;20002;-36
2024/04/09 01:46:46;;;;;;;2.92;2.40;;;16.50;99.90;;;;;;5472932;26;20696;-35
2024/04/09 01:49:12;;;;;;;3.28;2.97;;;16.50;99.90;;;;;;5471109;26;20002;-35
2024/04/09 01:51:37;;;;;;;5.15;3.00;;;16.50;99.90;;;;;;5473185;26;20897;-36
2024/04/09 01:54:04;;;;;;;4.55;3.13;;;16.50;99.90;;;;;;5470209;26;19999;-41
2024/04/09 01:56:30;;;;;;;3.13;2.72;;;16.50;99.90;;;;;;5472422;26;20032;-36
2024/04/09 01:58:56;;;;;;;2.83;2.40;;;16.50;99.90;;;;;;5468224;26;20010;-35
2024/04/09 02:01:21;;;;;;;3.22;2.80;;;16.50;99.90;;;;;;5472962;26;21142;-37
2024/04/09 02:03:49;;;;;;;2.85;2.55;;;16.50;99.90;;;;;;5470433;26;20009;-35
2024/04/09 02:06:16;;;;;;;4.30;2.75;;;16.50;99.90;;;;;;5475009;26;20456;-38
2024/04/09 02:08:42;;;;;;;3.45;2.60;;;16.50;99.90;;;;;;5473983;26;20002;-36
2024/04/09 02:11:12;;;;;;;2.58;2.33;;;16.50;99.90;;;;;;5473780;26;19990;-39
2024/04/09 02:13:40;;;;;;;4.35;2.60;;;16.50;99.90;;;;;;5471018;26;20009;-38
2024/04/09 02:16:09;;;;;;;4.75;2.60;;;16.50;99.90;;;;;;5472307;26;20014;-36
2024/04/09 02:18:36;;;;;;;5.05;3.13;;;16.50;99.90;;;;;;5471916;26;19990;-35
2024/04/09 02:21:03;;;;;;;4.07;2.30;;;16.50;99.90;;;;;;5476150;26;19994;-38
2024/04/09 02:23:29;;;;;;;2.47;2.20;;;16.50;99.90;;;;;;5472938;26;20727;-37
2024/04/09 02:26:01;;;;;;;2.22;1.90;;;16.50;99.90;;;;;;5473963;26;19998;-39
2024/04/09 02:28:29;;;;;;;2.33;2.13;;;16.50;99.90;;;;;;5470547;26;19998;-35
2024/04/09 02:30:56;;;;;;;3.65;1.83;;;16.40;99.90;;;;;;5460514;26;20009;-36
2024/04/09 02:33:22;;;;;;;2.63;2.17;;;16.40;99.90;;;;;;5471686;26;20050;-36
2024/04/09 02:36:17;;;;;;;2.60;1.88;;;16.40;99.90;;;;;;5470178;26;19995;-36
2024/04/09 02:38:43;;;;;;;2.85;1.80;;;16.40;99.90;;;;;;5432844;26;20564;-36
2024/04/09 02:41:16;;;;;;;2.70;1.92;;;16.40;99.90;;;;;;5470963;26;19990;-37
2024/04/09 02:43:42;;;;;;;1.98;1.70;;;16.40;99.90;;;;;;5470010;26;20677;-35
2024/04/09 02:46:08;;;;;;;2.17;1.75;;;16.40;99.90;;;;;;5469514;26;20082;-34
2024/04/09 02:48:34;;;;;;;2.67;1.80;;;16.40;99.90;;;;;;5471953;26;19994;-35
2024/04/09 02:51:05;;;;;;;2.72;1.85;;;16.40;99.90;;;;;;5475065;26;19990;-37
2024/04/09 02:53:33;;;;;;;2.92;1.50;;;16.40;99.90;;;;;;5474061;26;20005;-36
2024/04/09 02:56:09;;;;;;;2.03;1.55;;;16.30;99.90;;;;;;5471896;26;19994;-36
2024/04/09 02:58:36;;;;;;;2.83;1.58;;;16.30;99.90;;;;;;5455908;26;20362;-37
2024/04/09 03:01:09;;;;;;;1.67;1.30;;;16.20;99.90;;;;;;5471316;26;20014;-36
2024/04/09 03:03:38;;;;;;;1.73;1.35;;;16.20;99.90;;;;;;5471043;26;19998;-35
2024/04/09 03:06:06;;;;;;;1.67;1.27;;;16.20;99.90;;;;;;5471470;26;20200;-38
2024/04/09 03:08:31;;;;;;;2.50;1.38;;;16.10;99.90;;;;;;5465602;26;20030;-38
2024/04/09 03:10:57;;;;;;;1.98;1.25;;;16.10;99.90;;;;;;5468666;26;20014;-36
2024/04/09 03:13:23;;;;;;;1.83;1.30;;;16.10;99.90;;;;;;5473073;26;20001;-37
2024/04/09 03:15:49;;;;;;;1.85;1.45;;;16.10;99.90;;;;;;5474507;26;20078;-35
2024/04/09 03:18:14;;;;;;;2.83;1.50;;;16.10;99.90;;;;;;5471279;26;20033;-36
2024/04/09 03:20:40;;;;;;;3.03;1.42;;;16.10;99.90;;;;;;5469277;26;20010;-36
2024/04/09 03:23:06;;;;;;;2.10;1.30;;;16.00;99.90;;;;;;5467829;26;19998;-36
2024/04/09 03:25:31;;;;;;;2.00;1.20;;;16.00;99.90;;;;;;5472607;26;19994;-34
2024/04/09 03:27:57;;;;;;;2.03;1.23;;;15.90;99.90;;;;;;5472785;26;20323;-34
2024/04/09 03:30:22;;;;;;;2.42;1.30;;;15.90;99.90;;;;;;5468155;26;20570;-36
2024/04/09 03:32:51;;;;;;;1.63;1.08;;;15.90;99.90;;;;;;5469786;26;19998;-35
2024/04/09 03:35:16;;;;;;;3.70;1.42;;;15.90;99.90;;;;;;5469659;26;21098;-35
2024/04/09 03:37:42;;;;;;;3.30;1.25;;;15.90;99.90;;;;;;5467335;26;20004;-36
2024/04/09 03:40:08;;;;;;;1.02;0.85;;;15.90;99.90;;;;;;5467499;26;19998;-34
2024/04/09 03:42:33;;;;;;;2.83;1.50;;;15.90;99.90;;;;;;5466706;26;20362;-36
2024/04/09 03:44:59;;;;;;;1.38;0.90;;;15.90;99.90;;;;;;5471681;26;19998;-33
2024/04/09 03:47:25;;;;;;;2.65;1.40;;;15.90;99.90;;;;;;5472145;26;20472;-34
2024/04/09 03:49:51;;;;;;;1.77;1.10;;;15.90;99.90;;;;;;5470490;26;20009;-35
2024/04/09 03:52:16;;;;;;;3.05;1.40;;;15.90;99.90;;;;;;5471640;26;19994;-34
2024/04/09 03:54:42;;;;;;;1.88;1.35;;;16.00;99.90;;;;;;5469552;26;20057;-33
2024/04/09 03:57:10;;;;;;;3.38;1.58;;;16.00;99.90;;;;;;5468616;26;20954;-35
2024/04/09 03:59:36;;;;;;;2.25;1.63;;;16.00;99.90;;;;;;5464356;26;20006;-39
2024/04/09 04:02:03;;;;;;;1.85;1.30;;;16.00;99.90;;;;;;5466222;26;20010;-38
2024/04/09 04:04:29;;;;;;;1.77;1.48;;;15.90;99.90;;;;;;5468361;26;20705;-35
2024/04/09 04:06:57;;;;;;;2.00;1.80;;;16.00;99.90;;;;;;5471682;26;20048;-33
2024/04/09 04:09:23;;;;;;;1.42;1.27;;;16.00;99.90;;;;;;5471960;26;19995;-36
2024/04/09 04:11:50;;;;;;;2.35;1.70;;;16.00;99.90;;;;;;5473267;26;20856;-36
2024/04/09 04:14:16;;;;;;;3.28;1.80;;;15.90;99.90;;;;;;5473174;26;20066;-34
2024/04/09 04:16:41;;;;;;;2.15;1.88;;;15.90;99.90;;;;;;5470706;26;20017;-37
2024/04/09 04:19:27;;;;;;;3.40;2.28;;;15.90;99.90;;;;;;5475331;26;19991;-34
2024/04/09 04:21:53;;;;;;;2.60;2.30;;;15.90;99.90;;;;;;5466714;26;19999;-36
2024/04/09 04:24:18;;;;;;;2.97;2.67;;;15.90;99.90;;;;;;5474593;26;20005;-37
2024/04/09 04:26:47;;;;;;;4.75;3.60;;;15.80;99.90;;;;;;5471460;26;20013;-36
2024/04/09 04:29:12;;;;;;;5.20;4.32;;;15.90;99.90;;;;;;5475372;26;20866;-36
2024/04/09 04:31:38;;;;;;;6.35;4.70;;;15.80;99.90;;;;;;5475409;26;20002;-38
2024/04/09 04:34:04;;;;;;;6.93;6.22;;;15.80;99.90;;;;;;5471322;26;20010;-36
2024/04/09 04:36:31;;;;;;;5.90;5.40;;;15.70;99.90;;;;;;5470919;26;20080;-35
2024/04/09 04:38:59;;;;;;;7.13;6.22;;;15.80;99.90;;;;;;5470308;26;19994;-36
2024/04/09 04:41:25;;;;;;;6.20;5.60;;;15.70;99.90;;;;;;5475047;26;19994;-36
2024/04/09 04:43:55;;;;;;;8.80;7.13;;;15.70;99.90;;;;;;5472271;26;20009;-35
2024/04/09 04:46:21;;;;;;;10.35;6.82;;;15.70;99.90;;;;;;5471135;26;19998;-33
2024/04/09 04:48:47;;;;;;;9.18;6.78;;;15.70;99.90;;;;;;5475099;26;20735;-33
2024/04/09 04:51:15;;;;;;;9.75;8.35;;;15.60;99.90;;;;;;5477820;26;20012;-36
2024/04/09 04:53:41;;;;;;;8.07;7.28;;;15.60;99.90;;;;;;5474779;26;20083;-38
2024/04/09 04:56:06;;;;;;;8.38;7.00;;;15.60;99.90;;;;;;5471310;26;20014;-37
2024/04/09 04:58:32;;;;;;;7.90;7.07;;;15.60;99.90;;;;;;5474752;26;20013;-36
2024/04/09 05:00:58;;;;;;;6.38;5.78;;;15.60;99.90;;;;;;5471937;26;20051;-36
2024/04/09 05:03:24;;;;;;;6.72;6.13;;;15.60;99.90;;;;;;5470281;26;20006;-37
2024/04/09 05:05:50;;;;;;;8.00;7.07;;;15.60;99.90;;;;;;5473179;26;20095;-37
2024/04/09 05:08:17;;;;;;;7.18;6.57;;;15.50;99.90;;;;;;5469378;26;19994;-36
2024/04/09 05:10:42;;;;;;;7.07;6.38;;;15.50;99.90;;;;;;5475285;26;20013;-37
2024/04/09 05:13:08;;;;;;;6.35;5.85;;;15.50;99.90;;;;;;5473184;26;20049;-38
2024/04/09 05:15:34;;;;;;;6.50;5.90;;;15.50;99.90;;;;;;5470487;26;19998;-37
2024/04/09 05:17:59;;;;;;;5.63;5.13;;;15.40;99.90;;;;;;5469867;26;20614;-37
2024/04/09 05:20:36;;;;;;;5.70;5.20;;;15.40;99.90;;;;;;5471706;26;20762;-38
2024/04/09 05:23:04;;;;;;;6.47;5.82;;;15.40;99.90;;;;;;5465389;26;20013;-35
2024/04/09 05:25:33;;;;;;;7.10;6.03;;;15.40;99.90;;;;;;5474620;26;20014;-34
2024/04/09 05:27:59;;;;;;;7.32;5.97;;;15.40;99.90;;;;;;5468718;26;20008;-36
2024/04/09 05:30:25;;;;;;;6.15;5.55;;;15.30;99.90;;;;;;5472601;26;20517;-35
2024/04/09 05:32:50;;;;;;;5.88;5.28;;;15.30;99.90;;;;;;5473393;26;20095;-38
2024/04/09 05:35:19;;;;;;;6.28;5.68;;;15.30;99.90;;;;;;5473493;26;20079;-37
2024/04/09 05:37:45;;;;;;;7.00;6.30;;;15.30;99.90;;;;;;5468571;26;20046;-36
2024/04/09 05:40:10;;;;;;;9.02;8.13;;;15.30;99.90;;;;;;5473779;26;20617;-37
2024/04/09 05:42:46;;;;;;;8.93;7.88;;;15.30;99.90;;;;;;5470254;26;20449;-41
2024/04/09 05:45:17;;;;;;;8.07;7.38;;;15.30;99.90;;;;;;5471647;26;20006;-36
2024/04/09 05:47:46;;;;;;;7.35;6.43;;;15.30;99.90;;;;;;5470655;26;19998;-36
2024/04/09 05:50:11;;;;;;;7.97;7.13;;;15.20;99.90;;;;;;5465026;26;20029;-37
2024/04/09 05:52:37;;;;;;;6.57;5.97;;;15.20;99.90;;;;;;5475161;26;20250;-37
2024/04/09 05:55:09;;;;;;;6.70;6.00;;;15.20;99.90;;;;;;5473196;26;20017;-36
2024/04/09 05:57:38;;;;;;;5.75;5.20;;;15.20;99.90;;;;;;5473462;26;19997;-39
2024/04/09 06:00:07;;;;;;;5.05;4.25;;;15.10;99.90;;;;;;5470543;26;20033;-37
2024/04/09 06:02:33;;;;;;;3.60;3.30;;;15.10;99.90;;;;;;5460303;26;20456;-34
2024/04/09 06:04:59;;;;;;;3.33;3.13;;;15.10;99.90;;;;;;5471774;26;20429;-35
2024/04/09 06:07:28;;;;;;;4.25;3.25;;;15.10;99.90;;;;;;5466360;26;20036;-37
2024/04/09 06:09:54;;;;;;;3.30;3.00;;;15.10;99.90;;;;;;5467565;26;19994;-38
2024/04/09 06:12:22;;;;;;;3.45;2.80;;;15.00;99.90;;;;;;5470968;26;21109;-37
2024/04/09 06:14:51;;;;;;;3.13;2.60;;;15.00;99.90;;;;;;5468506;26;19994;-37
2024/04/09 06:17:17;;;;;;;4.10;2.80;;;15.00;99.90;;;;;;5452936;26;20342;-38
2024/04/09 06:19:42;;;;;;;2.80;2.50;;;15.00;99.90;;;;;;5469867;26;19998;-37
2024/04/09 06:22:08;;;;;;;4.03;2.83;;;15.00;99.90;;;;;;5473353;26;20009;-37
2024/04/09 06:24:34;;;;;;;2.60;2.40;;;15.00;99.90;;;;;;5470823;26;19994;-37
2024/04/09 06:26:59;;;;;;;2.90;2.22;;;15.00;99.90;;;;;;5473466;26;20038;-38
2024/04/09 06:29:25;;;;;;;3.92;2.80;;;15.00;99.90;;;;;;5472332;26;20045;-34
2024/04/09 06:31:50;;;;;;;2.72;2.30;;;15.00;99.90;;;;;;5470308;26;20003;-38
2024/04/09 06:34:16;;;;;;;2.50;2.30;;;15.00;99.90;;;;;;5472128;26;20009;-33
2024/04/09 06:36:41;;;;;;;3.95;2.50;;;15.00;99.90;;;;;;5474099;26;20002;-37
2024/04/09 06:39:07;;;;;;;4.28;2.60;;;15.00;99.90;;;;;;5469758;26;19998;-34
2024/04/09 06:41:33;;;;;;;3.17;2.28;;;15.00;99.90;;;;;;5467458;26;20002;-37
2024/04/09 06:43:58;;;;;;;4.15;2.50;;;15.00;99.90;;;;;;5467902;26;21790;-37
2024/04/09 06:46:24;;;;;;;3.47;2.55;;;14.90;99.90;;;;;;5469490;26;20513;-34
2024/04/09 06:48:49;;;;;;;2.55;2.35;;;14.90;99.90;;;;;;5468668;26;19994;-37
2024/04/09 06:51:15;;;;;;;2.17;1.98;;;14.90;99.90;;;;;;5470781;26;20560;-36
2024/04/09 06:53:41;;;;;;;2.38;1.90;;;14.90;99.90;;;;;;5470366;26;19994;-37
2024/04/09 06:56:07;;;;;;;2.33;1.60;;;14.90;99.90;;;;;;5470516;26;20005;-37
2024/04/09 06:58:33;;;;;;;3.20;1.77;;;14.90;99.90;;;;;;5462928;26;20014;-37
2024/04/09 07:00:58;;;;;;;3.25;1.40;;;14.90;99.90;;;;;;5470592;26;20074;-33
2024/04/09 07:03:24;;;;;;;3.30;1.02;;;14.80;99.90;;;;;;5473912;26;20394;-37
2024/04/09 07:05:50;;;;;;;1.58;1.13;;;14.90;99.90;;;;;;5475481;26;20886;-37
2024/04/09 07:08:15;;;;;;;4.78;1.10;;;14.80;99.90;;;;;;5475026;26;20070;-35
2024/04/09 07:10:41;;;;;;;3.15;1.08;;;14.80;99.90;;;;;;5474184;26;19998;-37
2024/04/09 07:13:07;;;;;;;3.58;1.35;;;14.70;99.90;;;;;;5474238;26;20057;-36
2024/04/09 07:15:32;;;;;;;1.95;0.93;;;14.70;99.90;;;;;;5474090;26;20001;-33
2024/04/09 07:17:58;;;;;;;1.65;0.80;;;14.70;99.90;;;;;;5474454;26;19994;-36
2024/04/09 07:20:23;;;;;;;1.67;0.80;;;14.70;99.90;;;;;;5474803;26;20908;-36
2024/04/09 07:22:49;;;;;;;3.15;1.10;;;14.60;99.90;;;;;;5474816;26;20979;-37
2024/04/09 07:25:15;;;;;;;2.08;0.75;;;14.50;99.90;;;;;;5475368;26;20000;-35
2024/04/09 07:27:40;;;;;;;3.42;0.75;;;14.40;99.90;;;;;;5474352;26;19994;-33
2024/04/09 07:30:07;;;;;;;3.72;1.00;;;14.30;99.90;;;;;;5474478;26;20006;-33
2024/04/09 07:32:35;;;;;;;3.60;0.98;;;14.30;99.90;;;;;;5474316;26;20363;-35
2024/04/09 07:35:04;;;;;;;4.25;1.05;;;14.30;99.90;;;;;;5473166;26;20002;-38
2024/04/09 07:37:30;;;;;;;2.28;1.00;;;14.40;99.90;;;;;;5474636;26;20009;-36
2024/04/09 07:39:59;;;;;;;2.60;0.93;;;14.40;99.90;;;;;;5473157;26;20022;-33
2024/04/09 07:42:25;;;;;;;3.20;0.90;;;14.40;99.90;;;;;;5473457;26;20002;-39
2024/04/09 07:44:50;;;;;;;4.20;0.77;;;14.40;99.90;;;;;;5476034;26;20002;-37
2024/04/09 07:47:17;;;;;;;1.10;0.60;;;14.30;99.90;;;;;;5478194;26;20034;-36
2024/04/09 07:49:49;;;;;;;3.97;1.00;;;14.30;99.90;;;;;;5476933;26;20022;-32
2024/04/09 07:52:15;;;;;;;2.90;0.93;;;14.20;99.90;;;;;;5477354;26;20031;-32
2024/04/09 07:54:43;;;;;;;3.65;1.10;;;14.20;99.90;;;;;;5476711;26;20223;-35
2024/04/09 07:57:14;;;;;;;4.25;0.90;;;14.10;99.90;;;;;;5477323;26;20004;-35
2024/04/09 07:59:40;;;;;;;3.90;0.90;;;14.10;99.90;;;;;;5477022;26;19994;-36
2024/04/09 08:02:06;;;;;;;2.75;0.88;;;14.10;99.90;;;;;;5478019;26;20002;-36
2024/04/09 08:04:32;;;;;;;3.13;0.80;;;14.10;99.90;;;;;;5476966;26;19998;-34
2024/04/09 08:06:57;;;;;;;1.63;0.80;;;14.10;99.90;;;;;;5477562;26;20453;-37
2024/04/09 08:09:23;;;;;;;2.65;0.90;;;14.10;99.90;;;;;;5477354;26;20102;-36
2024/04/09 08:11:49;;;;;;;2.17;0.70;;;14.10;99.90;;;;;;5477205;26;20099;-34
2024/04/09 08:14:15;;;;;;;1.65;0.70;;;14.20;99.90;;;;;;5478047;26;20042;-36
2024/04/09 08:16:41;;;;;;;4.75;1.13;;;14.20;99.90;;;;;;5477240;26;20694;-32
2024/04/09 08:19:07;;;;;;;5.43;1.00;;;14.30;99.90;;;;;;5477698;26;19994;-35
2024/04/09 08:21:32;;;;;;;4.15;1.00;;;14.30;99.90;;;;;;5476888;26;20022;-36
2024/04/09 08:23:58;;;;;;;4.05;0.90;;;14.40;99.90;;;;;;5476548;26;20461;-35
2024/04/09 08:26:24;;;;;;;3.22;0.80;;;14.40;99.90;;;;;;5476455;26;19998;-34
2024/04/09 08:28:52;;;;;;;2.65;1.00;;;14.50;99.90;;;;;;5476685;26;20020;-38
2024/04/09 08:31:27;;;;;;;2.50;0.90;;;14.50;99.90;;;;;;5476375;26;20001;-35
2024/04/09 08:33:56;;;;;;;2.22;0.90;;;14.50;99.90;;;;;;5475061;26;20764;-33
2024/04/09 08:36:22;;;;;;;3.58;1.10;;;14.50;99.90;;;;;;5477420;26;20010;-33
2024/04/09 08:38:50;;;;;;;1.40;0.70;;;14.50;99.90;;;;;;5475420;26;20510;-37
2024/04/09 08:41:16;;;;;;;2.88;0.82;;;14.50;99.90;;;;;;5476903;26;19994;-35
2024/04/09 08:43:47;;;;;;;2.13;0.65;;;14.50;99.90;;;;;;5477540;26;20583;-36
2024/04/09 08:46:13;;;;;;;3.45;1.10;;;14.60;99.90;;;;;;5475667;26;20040;-39
2024/04/09 08:48:40;;;;;;;2.55;0.82;;;14.60;99.90;;;;;;5475508;26;20002;-35
2024/04/09 08:51:07;;;;;;;2.35;1.00;;;14.60;99.90;;;;;;5475792;26;20451;-36
2024/04/09 08:53:33;;;;;;;6.18;1.23;;;14.70;99.90;;;;;;5475468;26;20016;-33
2024/04/09 08:56:00;;;;;;;2.65;0.80;;;14.70;99.90;;;;;;5474764;26;20013;-33
2024/04/09 08:58:25;;;;;;;3.15;1.08;;;14.80;99.90;;;;;;5476074;26;20002;-34
2024/04/09 09:00:51;;;;;;;4.35;1.08;;;14.80;99.90;;;;;;5475687;26;20010;-34
2024/04/09 09:03:17;;;;;;;2.38;0.82;;;14.90;99.90;;;;;;5475434;26;19998;-33
2024/04/09 09:06:04;;;;;;;3.17;1.00;;;14.80;99.90;;;;;;5475135;26;20012;-34
2024/04/09 09:09:00;;;;;;;3.60;1.00;;;14.80;99.90;;;;;;5475245;26;20003;-36
2024/04/09 09:11:25;;;;;;;3.22;1.13;;;14.90;99.90;;;;;;5453386;26;19998;-38
2024/04/09 09:13:51;;;;;;;3.95;0.90;;;15.00;99.90;;;;;;5475162;26;20013;-41
2024/04/09 09:16:17;;;;;;;2.70;0.80;;;15.00;99.90;;;;;;5476424;26;20006;-35
2024/04/09 09:18:43;;;;;;;3.70;1.00;;;15.00;99.90;;;;;;5475647;26;20544;-37
2024/04/09 09:21:09;;;;;;;1.95;0.65;;;15.00;99.90;;;;;;5475292;26;19998;-37
2024/04/09 09:23:34;;;;;;;2.60;0.93;;;15.10;99.90;;;;;;5475614;26;20005;-38
2024/04/09 09:26:02;;;;;;;1.52;1.00;;;15.00;99.90;;;;;;5477144;26;19994;-37
2024/04/09 09:28:27;;;;;;;3.53;0.70;;;15.00;99.90;;;;;;5475021;26;20441;-32
2024/04/09 09:30:56;;;;;;;3.42;1.10;;;14.90;99.90;;;;;;5476191;26;20025;-37
2024/04/09 09:33:29;;;;;;;3.92;1.10;;;14.90;99.90;;;;;;5476479;26;20482;-35
2024/04/09 09:35:55;;;;;;;4.35;1.00;;;14.90;99.90;;;;;;5476388;26;20074;-35
2024/04/09 09:38:29;;;;;;;2.97;1.23;;;14.90;99.90;;;;;;5475524;26;20859;-34
2024/04/09 09:41:04;;;;;;;1.92;0.82;;;15.00;99.90;;;;;;5475611;26;20039;-33
2024/04/09 09:43:32;;;;;;;4.03;1.10;;;15.00;99.90;;;;;;5475348;26;20009;-36
2024/04/09 09:45:57;;;;;;;3.90;0.80;;;15.00;99.90;;;;;;5476246;26;20866;-33
2024/04/09 09:48:24;;;;;;;3.20;0.95;;;15.00;99.90;;;;;;5475300;26;20002;-36
2024/04/09 09:50:51;;;;;;;3.28;0.98;;;14.80;99.90;;;;;;5476019;26;20002;-37
2024/04/09 09:53:19;;;;;;;3.90;0.70;;;14.70;99.90;;;;;;5475710;26;19994;-36
2024/04/09 09:55:49;;;;;;;2.10;0.98;;;14.60;99.90;;;;;;5454757;26;20868;-35
2024/04/09 09:58:19;;;;;;;2.75;0.80;;;14.60;99.90;;;;;;5475353;26;20052;-37
2024/04/09 10:00:45;;;;;;;4.68;1.10;;;14.50;99.90;;;;;;5475743;26;20087;-34
2024/04/09 10:03:11;;;;;;;1.45;0.70;;;14.50;99.90;;;;;;5474248;26;20492;-36
2024/04/09 10:05:38;;;;;;;3.28;1.00;;;14.50;99.90;;;;;;5474575;26;20001;-36
2024/04/09 10:08:27;;;;;;;2.80;1.13;;;14.60;99.90;;;;;;5474989;26;20465;-37
2024/04/09 10:10:53;;;;;;;3.28;1.30;;;14.70;99.90;;;;;;5457943;26;20556;-35
2024/04/09 10:13:24;;;;;;;4.97;1.10;;;14.70;99.90;;;;;;5474741;26;19998;-37
2024/04/09 10:15:49;;;;;;;3.53;0.82;;;14.70;99.90;;;;;;5472640;26;20032;-36
2024/04/09 10:18:30;;;;;;;2.25;0.85;;;14.70;99.90;;;;;;5475102;26;20002;-36
2024/04/09 10:20:56;;;;;;;5.15;1.30;;;14.80;99.90;;;;;;5474804;26;20008;-37
2024/04/09 10:23:25;;;;;;;1.85;0.90;;;14.90;99.90;;;;;;5474388;26;20933;-36
2024/04/09 10:25:55;;;;;;;2.97;1.15;;;15.00;99.90;;;;;;5474211;26;20526;-36
2024/04/09 10:28:32;;;;;;;2.05;0.70;;;15.00;99.90;;;;;;5474291;26;19999;-33
2024/04/09 10:31:08;;;;;;;2.65;0.80;;;15.10;99.90;;;;;;5474382;26;19998;-37
2024/04/09 10:33:38;;;;;;;2.50;0.75;;;15.10;99.90;;;;;;5474710;26;20005;-36
2024/04/09 10:36:08;;;;;;;2.53;1.00;;;15.10;99.90;;;;;;5475289;26;20005;-37
2024/04/09 10:38:43;;;;;;;1.05;0.60;;;15.00;99.90;;;;;;5474749;26;20006;-32
2024/04/09 10:41:09;;;;;;;3.10;0.85;;;15.00;99.90;;;;;;5475114;26;20330;-34
2024/04/09 10:43:35;;;;;;;2.03;0.70;;;15.00;99.90;;;;;;5475212;26;19998;-36
2024/04/09 10:46:00;;;;;;;3.05;0.75;;;15.00;99.90;;;;;;5474281;26;20075;-34
2024/04/09 10:48:26;;;;;;;1.52;0.65;;;15.00;99.90;;;;;;5475171;26;19998;-36
2024/04/09 10:50:52;;;;;;;2.50;0.70;;;15.10;99.90;;;;;;5475171;26;20013;-35
2024/04/09 10:53:18;;;;;;;1.60;0.73;;;15.20;99.90;;;;;;5475411;26;20002;-35
2024/04/09 10:55:47;;;;;;;1.67;0.70;;;15.20;99.90;;;;;;5475092;26;19998;-35
2024/04/09 10:58:14;;;;;;;3.05;0.80;;;15.20;99.90;;;;;;5474451;26;20010;-37
2024/04/09 11:00:54;;;;;;;3.03;0.90;;;15.30;99.90;;;;;;5471481;26;20009;-36
2024/04/09 11:03:21;;;;;;;2.50;0.95;;;15.30;99.90;;;;;;5471398;26;20043;-33
2024/04/09 11:05:51;;;;;;;4.43;0.90;;;15.30;99.90;;;;;;5470412;26;19998;-36
2024/04/09 11:08:31;;;;;;;2.22;0.70;;;15.40;99.90;;;;;;5471875;26;20006;-36
2024/04/09 11:11:01;;;;;;;4.13;1.00;;;15.30;99.90;;;;;;5471759;26;20842;-36
2024/04/09 11:13:28;;;;;;;2.38;1.10;;;15.40;99.90;;;;;;5471130;26;20048;-34
2024/04/09 11:15:54;;;;;;;4.10;0.80;;;15.40;99.90;;;;;;5473458;26;20010;-34
2024/04/09 11:18:20;;;;;;;2.25;0.70;;;15.40;99.90;;;;;;5473061;26;20071;-34
2024/04/09 11:20:56;;;;;;;2.33;0.70;;;15.40;99.60;;;;;;5473596;26;20394;-33
2024/04/09 11:23:26;;;;;;;2.97;0.95;;;15.30;99.90;;;;;;5470071;26;20070;-35
2024/04/09 11:25:52;;;;;;;1.10;0.60;;;15.40;99.40;;;;;;5474831;26;20321;-36
2024/04/09 11:28:22;;;;;;;1.33;0.60;;;15.40;99.50;;;;;;5472335;26;19998;-35
2024/04/09 11:30:55;;;;;;;1.33;0.60;;;15.40;99.50;;;;;;5474110;26;20010;-37
2024/04/09 11:33:22;;;;;;;2.28;0.73;;;15.40;99.50;;;;;;5473271;26;19998;-36
2024/04/09 11:35:58;;;;;;;1.58;0.52;;;15.50;98.70;;;;;;5474280;26;20013;-35
2024/04/09 11:38:23;;;;;;;1.75;0.75;;;15.40;98.80;;;;;;5467918;26;20010;-37
2024/04/09 11:40:50;;;;;;;2.38;0.80;;;15.40;99.00;;;;;;5473572;26;20010;-37
2024/04/09 11:43:15;;;;;;;3.17;1.13;;;15.50;98.80;;;;;;5472686;26;20601;-36
2024/04/09 11:45:41;;;;;;;2.25;0.80;;;15.50;98.70;;;;;;5474502;26;20454;-34
2024/04/09 11:48:07;;;;;;;1.77;0.90;;;15.60;98.80;;;;;;5473195;26;20432;-36
2024/04/09 11:50:33;;;;;;;1.33;0.70;;;15.70;98.60;;;;;;5473167;26;20002;-39
2024/04/09 11:53:02;;;;;;;1.35;0.50;;;15.80;98.40;;;;;;5472371;26;20036;-35
2024/04/09 11:55:28;;;;;;;1.80;0.50;;;15.80;97.80;;;;;;5473052;26;20010;-35
2024/04/09 11:57:54;;;;;;;2.03;1.00;;;15.90;97.70;;;;;;5472017;26;20049;-37
2024/04/09 12:00:19;;;;;;;2.08;0.80;;;15.90;97.70;;;;;;5473310;26;19994;-37
2024/04/09 12:02:46;;;;;;;1.88;0.70;;;15.90;97.10;;;;;;5473370;26;20051;-37
2024/04/09 12:05:13;;;;;;;2.22;0.90;;;15.80;96.70;;;;;;5473173;26;19998;-37
2024/04/09 12:07:42;;;;;;;2.90;0.68;;;15.70;96.70;;;;;;5473337;26;20988;-35
2024/04/09 12:10:09;;;;;;;1.58;0.63;;;15.60;96.30;;;;;;5472803;26;20466;-36
2024/04/09 12:12:35;;;;;;;1.92;0.68;;;15.60;96.70;;;;;;5472700;26;20327;-31
2024/04/09 12:15:04;;;;;;;2.90;0.80;;;15.50;97.00;;;;;;5473515;26;20460;-36
2024/04/09 12:17:33;;;;;;;1.65;0.70;;;15.50;97.40;;;;;;5473013;26;20009;-36
2024/04/09 12:20:02;;;;;;;1.15;0.57;;;15.50;97.40;;;;;;5470097;26;20005;-37
2024/04/09 12:22:27;;;;;;;1.58;0.70;;;15.50;97.60;;;;;;5473009;26;20018;-37
2024/04/09 12:24:54;;;;;;;2.08;0.50;;;15.50;97.80;;;;;;5471961;26;20002;-36
2024/04/09 12:27:20;;;;;;;2.72;0.70;;;15.50;98.00;;;;;;5472516;26;20012;-36
2024/04/09 12:29:46;;;;;;;1.98;0.65;;;15.50;98.00;;;;;;5473017;26;19998;-36
2024/04/09 12:32:12;;;;;;;2.63;0.90;;;15.50;97.70;;;;;;5474688;26;19998;-37
2024/04/09 12:34:38;;;;;;;3.28;0.60;;;15.40;97.60;;;;;;5476499;26;20009;-38
2024/04/09 12:37:05;;;;;;;3.22;0.77;;;15.40;97.40;;;;;;5476519;26;19998;-37
2024/04/09 12:39:31;;;;;;;2.40;0.90;;;15.40;97.40;;;;;;5476574;26;20571;-38
2024/04/09 12:41:58;;;;;;;1.38;0.70;;;15.50;97.70;;;;;;5477346;26;19997;-36
2024/04/09 12:44:25;;;;;;;2.45;0.50;;;15.60;97.70;;;;;;5475758;26;20544;-34
2024/04/09 12:46:50;;;;;;;2.17;0.63;;;15.60;97.10;;;;;;5476483;26;20054;-37